sensor_id;sensor_type;location;lat;lon;timestamp;P1;durP1;ratioP1;P2;durP2;ratioP2
33152;SDS011;19509;43.862;26.176;2022-11-15T00:02:17;1.33;;;1.33;;
33152;SDS011;19509;43.862;26.176;2022-11-15T00:04:43;1.10;;;1.10;;
33152;SDS011;19509;43.862;26.176;2022-11-15T00:07:08;1.33;;;1.33;;
33152;SDS011;19509;43.862;26.176;2022-11-15T00:09:33;1.37;;;1.37;;
33152;SDS011;19509;43.862;26.176;2022-11-15T00:11:59;1.30;;;1.30;;
33152;SDS011;19509;43.862;26.176;2022-11-15T00:14:24;1.20;;;1.20;;
33152;SDS011;19509;43.862;26.176;2022-11-15T00:16:50;1.27;;;1.27;;
33152;SDS011;19509;43.862;26.176;2022-11-15T00:19:15;1.30;;;1.30;;
33152;SDS011;19509;43.862;26.176;2022-11-15T00:21:41;1.20;;;1.20;;
33152;SDS011;19509;43.862;26.176;2022-11-15T00:24:06;1.20;;;1.20;;
33152;SDS011;19509;43.862;26.176;2022-11-15T00:26:32;1.20;;;1.20;;
33152;SDS011;19509;43.862;26.176;2022-11-15T00:28:57;1.30;;;1.30;;
33152;SDS011;19509;43.862;26.176;2022-11-15T00:31:22;1.37;;;1.37;;
33152;SDS011;19509;43.862;26.176;2022-11-15T00:33:48;1.33;;;1.33;;
33152;SDS011;19509;43.862;26.176;2022-11-15T00:36:13;1.37;;;1.37;;
33152;SDS011;19509;43.862;26.176;2022-11-15T00:38:39;1.20;;;1.20;;
33152;SDS011;19509;43.862;26.176;2022-11-15T00:41:06;1.30;;;1.30;;
33152;SDS011;19509;43.862;26.176;2022-11-15T00:43:32;1.13;;;1.13;;
33152;SDS011;19509;43.862;26.176;2022-11-15T00:45:58;1.30;;;1.30;;
33152;SDS011;19509;43.862;26.176;2022-11-15T00:48:24;1.20;;;1.20;;
33152;SDS011;19509;43.862;26.176;2022-11-15T00:50:49;1.30;;;1.30;;
33152;SDS011;19509;43.862;26.176;2022-11-15T00:53:15;1.37;;;1.37;;
33152;SDS011;19509;43.862;26.176;2022-11-15T00:55:41;1.40;;;1.40;;
33152;SDS011;19509;43.862;26.176;2022-11-15T00:58:06;1.23;;;1.23;;
33152;SDS011;19509;43.862;26.176;2022-11-15T01:00:32;1.20;;;1.20;;
33152;SDS011;19509;43.862;26.176;2022-11-15T01:02:57;1.20;;;1.20;;
33152;SDS011;19509;43.862;26.176;2022-11-15T01:05:23;1.27;;;1.27;;
33152;SDS011;19509;43.862;26.176;2022-11-15T01:07:52;1.37;;;1.37;;
33152;SDS011;19509;43.862;26.176;2022-11-15T01:10:18;1.17;;;1.17;;
33152;SDS011;19509;43.862;26.176;2022-11-15T01:12:43;1.17;;;1.17;;
33152;SDS011;19509;43.862;26.176;2022-11-15T01:15:09;1.20;;;1.20;;
33152;SDS011;19509;43.862;26.176;2022-11-15T01:17:34;1.30;;;1.30;;
33152;SDS011;19509;43.862;26.176;2022-11-15T01:20:00;1.30;;;1.30;;
33152;SDS011;19509;43.862;26.176;2022-11-15T01:22:25;1.20;;;1.20;;
33152;SDS011;19509;43.862;26.176;2022-11-15T01:24:51;1.10;;;1.10;;
33152;SDS011;19509;43.862;26.176;2022-11-15T01:27:16;1.30;;;1.30;;
33152;SDS011;19509;43.862;26.176;2022-11-15T01:29:42;1.20;;;1.20;;
33152;SDS011;19509;43.862;26.176;2022-11-15T01:32:07;1.30;;;1.30;;
33152;SDS011;19509;43.862;26.176;2022-11-15T01:34:33;1.23;;;1.23;;
33152;SDS011;19509;43.862;26.176;2022-11-15T01:36:58;1.30;;;1.30;;
33152;SDS011;19509;43.862;26.176;2022-11-15T01:39:23;1.40;;;1.40;;
33152;SDS011;19509;43.862;26.176;2022-11-15T01:41:49;1.40;;;1.40;;
33152;SDS011;19509;43.862;26.176;2022-11-15T01:46:59;1.33;;;1.33;;
33152;SDS011;19509;43.862;26.176;2022-11-15T01:49:27;1.27;;;1.27;;
33152;SDS011;19509;43.862;26.176;2022-11-15T01:51:55;1.20;;;1.20;;
33152;SDS011;19509;43.862;26.176;2022-11-15T01:54:21;1.27;;;1.27;;
33152;SDS011;19509;43.862;26.176;2022-11-15T01:56:51;1.40;;;1.40;;
33152;SDS011;19509;43.862;26.176;2022-11-15T01:59:24;1.40;;;1.40;;
33152;SDS011;19509;43.862;26.176;2022-11-15T02:01:50;1.40;;;1.40;;
33152;SDS011;19509;43.862;26.176;2022-11-15T02:04:17;1.40;;;1.40;;
33152;SDS011;19509;43.862;26.176;2022-11-15T02:06:46;1.30;;;1.27;;
33152;SDS011;19509;43.862;26.176;2022-11-15T02:09:13;1.50;;;1.50;;
33152;SDS011;19509;43.862;26.176;2022-11-15T02:11:39;1.67;;;1.67;;
33152;SDS011;19509;43.862;26.176;2022-11-15T02:14:05;1.50;;;1.50;;
33152;SDS011;19509;43.862;26.176;2022-11-15T02:16:35;1.50;;;1.50;;
33152;SDS011;19509;43.862;26.176;2022-11-15T02:30:23;1.60;;;1.60;;
33152;SDS011;19509;43.862;26.176;2022-11-15T02:32:53;1.53;;;1.53;;
33152;SDS011;19509;43.862;26.176;2022-11-15T02:35:32;1.47;;;1.47;;
33152;SDS011;19509;43.862;26.176;2022-11-15T02:38:31;1.60;;;1.60;;
33152;SDS011;19509;43.862;26.176;2022-11-15T02:40:58;1.57;;;1.57;;
33152;SDS011;19509;43.862;26.176;2022-11-15T02:43:41;1.60;;;1.60;;
33152;SDS011;19509;43.862;26.176;2022-11-15T02:46:38;1.50;;;1.50;;
33152;SDS011;19509;43.862;26.176;2022-11-15T02:49:41;1.47;;;1.47;;
33152;SDS011;19509;43.862;26.176;2022-11-15T02:52:14;1.50;;;1.50;;
33152;SDS011;19509;43.862;26.176;2022-11-15T02:54:41;1.63;;;1.53;;
33152;SDS011;19509;43.862;26.176;2022-11-15T02:57:07;1.50;;;1.50;;
33152;SDS011;19509;43.862;26.176;2022-11-15T03:02:41;1.40;;;1.40;;
33152;SDS011;19509;43.862;26.176;2022-11-15T03:08:34;1.50;;;1.50;;
33152;SDS011;19509;43.862;26.176;2022-11-15T03:11:15;1.63;;;1.63;;
33152;SDS011;19509;43.862;26.176;2022-11-15T03:16:37;1.67;;;1.67;;
33152;SDS011;19509;43.862;26.176;2022-11-15T03:19:42;1.30;;;1.30;;
33152;SDS011;19509;43.862;26.176;2022-11-15T03:22:11;1.40;;;1.40;;
33152;SDS011;19509;43.862;26.176;2022-11-15T03:24:40;1.30;;;1.30;;
33152;SDS011;19509;43.862;26.176;2022-11-15T03:27:08;1.53;;;1.53;;
33152;SDS011;19509;43.862;26.176;2022-11-15T03:29:38;1.20;;;1.20;;
33152;SDS011;19509;43.862;26.176;2022-11-15T03:32:11;1.70;;;1.70;;
33152;SDS011;19509;43.862;26.176;2022-11-15T03:34:44;1.40;;;1.40;;
33152;SDS011;19509;43.862;26.176;2022-11-15T03:37:15;1.30;;;1.30;;
33152;SDS011;19509;43.862;26.176;2022-11-15T03:39:42;1.30;;;1.30;;
33152;SDS011;19509;43.862;26.176;2022-11-15T03:49:44;1.50;;;1.50;;
33152;SDS011;19509;43.862;26.176;2022-11-15T03:52:16;1.40;;;1.40;;
33152;SDS011;19509;43.862;26.176;2022-11-15T03:54:50;1.40;;;1.40;;
33152;SDS011;19509;43.862;26.176;2022-11-15T03:57:19;1.30;;;1.30;;
33152;SDS011;19509;43.862;26.176;2022-11-15T03:59:44;1.40;;;1.40;;
33152;SDS011;19509;43.862;26.176;2022-11-15T04:02:10;1.43;;;1.43;;
33152;SDS011;19509;43.862;26.176;2022-11-15T04:04:35;1.40;;;1.40;;
33152;SDS011;19509;43.862;26.176;2022-11-15T04:07:01;1.60;;;1.60;;
33152;SDS011;19509;43.862;26.176;2022-11-15T04:09:26;1.40;;;1.40;;
33152;SDS011;19509;43.862;26.176;2022-11-15T04:11:52;1.70;;;1.70;;
33152;SDS011;19509;43.862;26.176;2022-11-15T04:14:17;1.70;;;1.60;;
33152;SDS011;19509;43.862;26.176;2022-11-15T04:16:42;1.40;;;1.40;;
33152;SDS011;19509;43.862;26.176;2022-11-15T04:19:08;1.60;;;1.60;;
33152;SDS011;19509;43.862;26.176;2022-11-15T04:21:51;1.50;;;1.50;;
33152;SDS011;19509;43.862;26.176;2022-11-15T04:24:35;1.40;;;1.40;;
33152;SDS011;19509;43.862;26.176;2022-11-15T04:27:01;1.70;;;1.70;;
33152;SDS011;19509;43.862;26.176;2022-11-15T04:29:26;1.40;;;1.40;;
33152;SDS011;19509;43.862;26.176;2022-11-15T04:32:01;1.60;;;1.60;;
33152;SDS011;19509;43.862;26.176;2022-11-15T04:34:28;1.40;;;1.40;;
33152;SDS011;19509;43.862;26.176;2022-11-15T04:36:53;1.50;;;1.50;;
33152;SDS011;19509;43.862;26.176;2022-11-15T04:39:38;1.60;;;1.60;;
33152;SDS011;19509;43.862;26.176;2022-11-15T04:42:07;1.50;;;1.50;;
33152;SDS011;19509;43.862;26.176;2022-11-15T04:44:33;1.57;;;1.57;;
33152;SDS011;19509;43.862;26.176;2022-11-15T04:46:58;1.43;;;1.43;;
33152;SDS011;19509;43.862;26.176;2022-11-15T04:49:24;1.57;;;1.57;;
33152;SDS011;19509;43.862;26.176;2022-11-15T04:51:49;1.47;;;1.47;;
33152;SDS011;19509;43.862;26.176;2022-11-15T04:54:15;1.67;;;1.67;;
33152;SDS011;19509;43.862;26.176;2022-11-15T04:56:40;1.50;;;1.50;;
33152;SDS011;19509;43.862;26.176;2022-11-15T04:59:05;1.50;;;1.50;;
33152;SDS011;19509;43.862;26.176;2022-11-15T05:01:31;1.80;;;1.80;;
33152;SDS011;19509;43.862;26.176;2022-11-15T05:03:56;1.50;;;1.50;;
33152;SDS011;19509;43.862;26.176;2022-11-15T05:06:40;1.40;;;1.40;;
33152;SDS011;19509;43.862;26.176;2022-11-15T05:09:06;1.60;;;1.60;;
33152;SDS011;19509;43.862;26.176;2022-11-15T05:11:31;1.37;;;1.37;;
33152;SDS011;19509;43.862;26.176;2022-11-15T05:13:57;1.60;;;1.60;;
33152;SDS011;19509;43.862;26.176;2022-11-15T05:16:22;1.50;;;1.50;;
33152;SDS011;19509;43.862;26.176;2022-11-15T05:18:50;1.57;;;1.57;;
33152;SDS011;19509;43.862;26.176;2022-11-15T05:21:16;1.60;;;1.60;;
33152;SDS011;19509;43.862;26.176;2022-11-15T05:23:42;1.30;;;1.30;;
33152;SDS011;19509;43.862;26.176;2022-11-15T05:26:08;1.40;;;1.40;;
33152;SDS011;19509;43.862;26.176;2022-11-15T05:28:35;1.50;;;1.50;;
33152;SDS011;19509;43.862;26.176;2022-11-15T05:31:05;1.30;;;1.30;;
33152;SDS011;19509;43.862;26.176;2022-11-15T05:33:41;1.40;;;1.40;;
33152;SDS011;19509;43.862;26.176;2022-11-15T05:36:18;1.50;;;1.50;;
33152;SDS011;19509;43.862;26.176;2022-11-15T05:38:50;2.50;;;2.30;;
33152;SDS011;19509;43.862;26.176;2022-11-15T05:41:17;2.33;;;2.23;;
33152;SDS011;19509;43.862;26.176;2022-11-15T05:43:47;1.80;;;1.80;;
33152;SDS011;19509;43.862;26.176;2022-11-15T05:46:15;1.90;;;1.90;;
33152;SDS011;19509;43.862;26.176;2022-11-15T05:48:42;1.83;;;1.83;;
33152;SDS011;19509;43.862;26.176;2022-11-15T05:51:09;1.70;;;1.70;;
33152;SDS011;19509;43.862;26.176;2022-11-15T05:53:37;1.50;;;1.50;;
33152;SDS011;19509;43.862;26.176;2022-11-15T05:56:04;1.50;;;1.50;;
33152;SDS011;19509;43.862;26.176;2022-11-15T05:58:34;1.60;;;1.60;;
33152;SDS011;19509;43.862;26.176;2022-11-15T06:01:01;1.50;;;1.50;;
33152;SDS011;19509;43.862;26.176;2022-11-15T06:03:27;1.30;;;1.30;;
33152;SDS011;19509;43.862;26.176;2022-11-15T06:05:53;1.50;;;1.50;;
33152;SDS011;19509;43.862;26.176;2022-11-15T06:08:18;1.30;;;1.30;;
33152;SDS011;19509;43.862;26.176;2022-11-15T06:10:44;1.47;;;1.47;;
33152;SDS011;19509;43.862;26.176;2022-11-15T06:13:09;1.50;;;1.50;;
33152;SDS011;19509;43.862;26.176;2022-11-15T06:15:35;1.60;;;1.60;;
33152;SDS011;19509;43.862;26.176;2022-11-15T06:18:00;1.60;;;1.60;;
33152;SDS011;19509;43.862;26.176;2022-11-15T06:20:27;1.50;;;1.50;;
33152;SDS011;19509;43.862;26.176;2022-11-15T06:23:00;1.30;;;1.30;;
33152;SDS011;19509;43.862;26.176;2022-11-15T06:25:27;1.43;;;1.43;;
33152;SDS011;19509;43.862;26.176;2022-11-15T06:27:53;1.50;;;1.50;;
33152;SDS011;19509;43.862;26.176;2022-11-15T06:30:20;1.50;;;1.50;;
33152;SDS011;19509;43.862;26.176;2022-11-15T06:32:46;1.50;;;1.50;;
33152;SDS011;19509;43.862;26.176;2022-11-15T06:35:12;1.43;;;1.43;;
33152;SDS011;19509;43.862;26.176;2022-11-15T06:37:38;1.40;;;1.40;;
33152;SDS011;19509;43.862;26.176;2022-11-15T06:40:04;1.40;;;1.40;;
33152;SDS011;19509;43.862;26.176;2022-11-15T06:42:30;1.40;;;1.40;;
33152;SDS011;19509;43.862;26.176;2022-11-15T06:44:55;1.53;;;1.53;;
33152;SDS011;19509;43.862;26.176;2022-11-15T06:47:21;1.17;;;1.17;;
33152;SDS011;19509;43.862;26.176;2022-11-15T06:49:46;1.40;;;1.40;;
33152;SDS011;19509;43.862;26.176;2022-11-15T06:52:11;1.40;;;1.40;;
33152;SDS011;19509;43.862;26.176;2022-11-15T06:54:37;1.50;;;1.50;;
33152;SDS011;19509;43.862;26.176;2022-11-15T06:57:03;1.50;;;1.50;;
33152;SDS011;19509;43.862;26.176;2022-11-15T06:59:29;1.40;;;1.40;;
33152;SDS011;19509;43.862;26.176;2022-11-15T07:01:55;1.20;;;1.20;;
33152;SDS011;19509;43.862;26.176;2022-11-15T07:04:20;1.40;;;1.40;;
33152;SDS011;19509;43.862;26.176;2022-11-15T07:06:46;1.57;;;1.57;;
33152;SDS011;19509;43.862;26.176;2022-11-15T07:09:12;1.50;;;1.50;;
33152;SDS011;19509;43.862;26.176;2022-11-15T07:11:38;1.20;;;1.20;;
33152;SDS011;19509;43.862;26.176;2022-11-15T07:14:03;1.30;;;1.30;;
33152;SDS011;19509;43.862;26.176;2022-11-15T07:16:29;1.30;;;1.30;;
33152;SDS011;19509;43.862;26.176;2022-11-15T07:18:54;1.33;;;1.33;;
33152;SDS011;19509;43.862;26.176;2022-11-15T07:21:19;1.37;;;1.37;;
33152;SDS011;19509;43.862;26.176;2022-11-15T07:23:45;1.57;;;1.57;;
33152;SDS011;19509;43.862;26.176;2022-11-15T07:26:10;1.30;;;1.30;;
33152;SDS011;19509;43.862;26.176;2022-11-15T07:28:36;1.40;;;1.40;;
33152;SDS011;19509;43.862;26.176;2022-11-15T07:31:05;1.40;;;1.40;;
33152;SDS011;19509;43.862;26.176;2022-11-15T07:33:32;1.50;;;1.50;;
33152;SDS011;19509;43.862;26.176;2022-11-15T07:35:59;1.20;;;1.20;;
33152;SDS011;19509;43.862;26.176;2022-11-15T07:38:29;1.50;;;1.50;;
33152;SDS011;19509;43.862;26.176;2022-11-15T07:40:58;1.40;;;1.40;;
33152;SDS011;19509;43.862;26.176;2022-11-15T07:43:25;1.40;;;1.40;;
33152;SDS011;19509;43.862;26.176;2022-11-15T07:45:52;1.40;;;1.40;;
33152;SDS011;19509;43.862;26.176;2022-11-15T07:48:18;1.30;;;1.30;;
33152;SDS011;19509;43.862;26.176;2022-11-15T07:50:44;1.50;;;1.50;;
33152;SDS011;19509;43.862;26.176;2022-11-15T07:53:09;1.50;;;1.50;;
33152;SDS011;19509;43.862;26.176;2022-11-15T07:55:35;1.27;;;1.27;;
33152;SDS011;19509;43.862;26.176;2022-11-15T07:58:02;1.30;;;1.30;;
33152;SDS011;19509;43.862;26.176;2022-11-15T08:00:29;1.33;;;1.33;;
33152;SDS011;19509;43.862;26.176;2022-11-15T08:05:34;1.27;;;1.27;;
33152;SDS011;19509;43.862;26.176;2022-11-15T08:08:00;1.43;;;1.43;;
33152;SDS011;19509;43.862;26.176;2022-11-15T08:10:26;1.20;;;1.20;;
33152;SDS011;19509;43.862;26.176;2022-11-15T08:15:31;1.20;;;1.20;;
33152;SDS011;19509;43.862;26.176;2022-11-15T08:17:58;1.30;;;1.30;;
33152;SDS011;19509;43.862;26.176;2022-11-15T08:20:25;1.43;;;1.43;;
33152;SDS011;19509;43.862;26.176;2022-11-15T08:22:55;1.80;;;1.80;;
33152;SDS011;19509;43.862;26.176;2022-11-15T08:25:21;1.40;;;1.40;;
33152;SDS011;19509;43.862;26.176;2022-11-15T08:27:47;1.20;;;1.20;;
33152;SDS011;19509;43.862;26.176;2022-11-15T08:30:15;1.30;;;1.30;;
33152;SDS011;19509;43.862;26.176;2022-11-15T08:32:41;1.30;;;1.30;;
33152;SDS011;19509;43.862;26.176;2022-11-15T08:35:06;1.43;;;1.43;;
33152;SDS011;19509;43.862;26.176;2022-11-15T08:37:32;1.40;;;1.40;;
33152;SDS011;19509;43.862;26.176;2022-11-15T08:39:58;1.60;;;1.60;;
33152;SDS011;19509;43.862;26.176;2022-11-15T08:42:23;1.33;;;1.33;;
33152;SDS011;19509;43.862;26.176;2022-11-15T08:44:48;1.33;;;1.33;;
33152;SDS011;19509;43.862;26.176;2022-11-15T08:47:14;1.40;;;1.40;;
33152;SDS011;19509;43.862;26.176;2022-11-15T08:49:39;1.50;;;1.50;;
33152;SDS011;19509;43.862;26.176;2022-11-15T08:52:05;1.40;;;1.40;;
33152;SDS011;19509;43.862;26.176;2022-11-15T08:54:30;1.47;;;1.47;;
33152;SDS011;19509;43.862;26.176;2022-11-15T08:56:56;1.50;;;1.50;;
33152;SDS011;19509;43.862;26.176;2022-11-15T08:59:22;1.37;;;1.37;;
33152;SDS011;19509;43.862;26.176;2022-11-15T09:01:47;1.63;;;1.63;;
33152;SDS011;19509;43.862;26.176;2022-11-15T09:04:13;1.40;;;1.40;;
33152;SDS011;19509;43.862;26.176;2022-11-15T09:06:38;1.30;;;1.30;;
33152;SDS011;19509;43.862;26.176;2022-11-15T09:09:03;1.47;;;1.47;;
33152;SDS011;19509;43.862;26.176;2022-11-15T09:11:29;1.30;;;1.30;;
33152;SDS011;19509;43.862;26.176;2022-11-15T09:13:54;1.43;;;1.43;;
33152;SDS011;19509;43.862;26.176;2022-11-15T09:16:20;1.47;;;1.47;;
33152;SDS011;19509;43.862;26.176;2022-11-15T09:18:45;1.40;;;1.40;;
33152;SDS011;19509;43.862;26.176;2022-11-15T09:21:12;1.57;;;1.57;;
33152;SDS011;19509;43.862;26.176;2022-11-15T09:23:37;1.57;;;1.57;;
33152;SDS011;19509;43.862;26.176;2022-11-15T09:26:03;1.47;;;1.47;;
33152;SDS011;19509;43.862;26.176;2022-11-15T09:28:29;1.37;;;1.37;;
33152;SDS011;19509;43.862;26.176;2022-11-15T09:31:01;1.40;;;1.40;;
33152;SDS011;19509;43.862;26.176;2022-11-15T09:33:28;1.50;;;1.50;;
33152;SDS011;19509;43.862;26.176;2022-11-15T09:35:57;1.30;;;1.30;;
33152;SDS011;19509;43.862;26.176;2022-11-15T09:38:28;1.30;;;1.30;;
33152;SDS011;19509;43.862;26.176;2022-11-15T09:40:59;1.47;;;1.47;;
33152;SDS011;19509;43.862;26.176;2022-11-15T09:49:40;1.50;;;1.50;;
33152;SDS011;19509;43.862;26.176;2022-11-15T09:52:06;1.60;;;1.60;;
33152;SDS011;19509;43.862;26.176;2022-11-15T09:54:36;1.70;;;1.70;;
33152;SDS011;19509;43.862;26.176;2022-11-15T09:57:10;1.53;;;1.53;;
33152;SDS011;19509;43.862;26.176;2022-11-15T10:04:51;1.37;;;1.37;;
33152;SDS011;19509;43.862;26.176;2022-11-15T10:07:19;1.70;;;1.70;;
33152;SDS011;19509;43.862;26.176;2022-11-15T10:12:18;1.37;;;1.37;;
33152;SDS011;19509;43.862;26.176;2022-11-15T10:14:45;1.50;;;1.50;;
33152;SDS011;19509;43.862;26.176;2022-11-15T10:20:17;1.40;;;1.40;;
33152;SDS011;19509;43.862;26.176;2022-11-15T10:22:48;1.57;;;1.57;;
33152;SDS011;19509;43.862;26.176;2022-11-15T10:28:13;1.50;;;1.50;;
33152;SDS011;19509;43.862;26.176;2022-11-15T10:30:41;1.60;;;1.60;;
33152;SDS011;19509;43.862;26.176;2022-11-15T10:33:14;1.50;;;1.50;;
33152;SDS011;19509;43.862;26.176;2022-11-15T10:35:42;1.60;;;1.60;;
33152;SDS011;19509;43.862;26.176;2022-11-15T10:38:09;1.60;;;1.60;;
33152;SDS011;19509;43.862;26.176;2022-11-15T10:40:35;1.57;;;1.57;;
33152;SDS011;19509;43.862;26.176;2022-11-15T10:43:18;1.63;;;1.63;;
33152;SDS011;19509;43.862;26.176;2022-11-15T10:45:44;1.57;;;1.57;;
33152;SDS011;19509;43.862;26.176;2022-11-15T10:50:40;1.70;;;1.70;;
33152;SDS011;19509;43.862;26.176;2022-11-15T10:55:48;1.53;;;1.53;;
33152;SDS011;19509;43.862;26.176;2022-11-15T10:58:22;1.60;;;1.60;;
33152;SDS011;19509;43.862;26.176;2022-11-15T11:03:43;1.73;;;1.73;;
33152;SDS011;19509;43.862;26.176;2022-11-15T11:06:14;1.80;;;1.80;;
33152;SDS011;19509;43.862;26.176;2022-11-15T11:08:54;1.60;;;1.60;;
33152;SDS011;19509;43.862;26.176;2022-11-15T11:11:21;1.63;;;1.63;;
33152;SDS011;19509;43.862;26.176;2022-11-15T11:13:47;1.80;;;1.80;;
33152;SDS011;19509;43.862;26.176;2022-11-15T11:21:40;1.67;;;1.67;;
33152;SDS011;19509;43.862;26.176;2022-11-15T11:24:31;2.10;;;2.10;;
33152;SDS011;19509;43.862;26.176;2022-11-15T11:27:18;1.70;;;1.70;;
33152;SDS011;19509;43.862;26.176;2022-11-15T11:30:00;1.90;;;1.90;;
33152;SDS011;19509;43.862;26.176;2022-11-15T11:35:14;1.90;;;1.90;;
33152;SDS011;19509;43.862;26.176;2022-11-15T11:37:50;1.80;;;1.80;;
33152;SDS011;19509;43.862;26.176;2022-11-15T11:51:20;1.70;;;1.70;;
33152;SDS011;19509;43.862;26.176;2022-11-15T11:53:58;1.90;;;1.90;;
33152;SDS011;19509;43.862;26.176;2022-11-15T11:56:34;1.90;;;1.90;;
33152;SDS011;19509;43.862;26.176;2022-11-15T12:01:44;1.60;;;1.60;;
33152;SDS011;19509;43.862;26.176;2022-11-15T12:06:48;1.90;;;1.90;;
33152;SDS011;19509;43.862;26.176;2022-11-15T12:17:25;1.73;;;1.73;;
33152;SDS011;19509;43.862;26.176;2022-11-15T12:20:19;1.80;;;1.80;;
33152;SDS011;19509;43.862;26.176;2022-11-15T12:23:37;1.90;;;1.90;;
33152;SDS011;19509;43.862;26.176;2022-11-15T12:25:57;1.80;;;1.80;;
33152;SDS011;19509;43.862;26.176;2022-11-15T12:31:12;1.90;;;1.90;;
33152;SDS011;19509;43.862;26.176;2022-11-15T12:33:43;2.20;;;2.20;;
33152;SDS011;19509;43.862;26.176;2022-11-15T12:39:07;1.97;;;1.97;;
33152;SDS011;19509;43.862;26.176;2022-11-15T12:41:34;2.07;;;2.07;;
33152;SDS011;19509;43.862;26.176;2022-11-15T12:44:02;2.10;;;2.10;;
33152;SDS011;19509;43.862;26.176;2022-11-15T12:48:55;2.20;;;2.20;;
33152;SDS011;19509;43.862;26.176;2022-11-15T12:51:22;2.13;;;2.13;;
33152;SDS011;19509;43.862;26.176;2022-11-15T13:02:35;2.10;;;2.10;;
33152;SDS011;19509;43.862;26.176;2022-11-15T13:17:51;2.20;;;2.20;;
33152;SDS011;19509;43.862;26.176;2022-11-15T13:20:23;2.33;;;2.33;;
33152;SDS011;19509;43.862;26.176;2022-11-15T13:23:09;2.20;;;2.20;;
33152;SDS011;19509;43.862;26.176;2022-11-15T13:34:00;2.00;;;2.00;;
33152;SDS011;19509;43.862;26.176;2022-11-15T13:36:29;2.00;;;2.00;;
33152;SDS011;19509;43.862;26.176;2022-11-15T13:39:25;2.27;;;2.27;;
33152;SDS011;19509;43.862;26.176;2022-11-15T13:41:57;2.40;;;2.40;;
33152;SDS011;19509;43.862;26.176;2022-11-15T13:44:27;2.30;;;2.30;;
33152;SDS011;19509;43.862;26.176;2022-11-15T13:47:18;2.10;;;2.10;;
33152;SDS011;19509;43.862;26.176;2022-11-15T13:49:44;2.03;;;2.03;;
33152;SDS011;19509;43.862;26.176;2022-11-15T13:52:11;2.20;;;2.20;;
33152;SDS011;19509;43.862;26.176;2022-11-15T13:57:57;2.30;;;2.30;;
33152;SDS011;19509;43.862;26.176;2022-11-15T14:00:30;2.37;;;2.37;;
33152;SDS011;19509;43.862;26.176;2022-11-15T14:03:19;2.47;;;2.47;;
33152;SDS011;19509;43.862;26.176;2022-11-15T14:06:04;1.97;;;1.97;;
33152;SDS011;19509;43.862;26.176;2022-11-15T14:08:31;2.17;;;2.17;;
33152;SDS011;19509;43.862;26.176;2022-11-15T14:11:08;2.23;;;2.23;;
33152;SDS011;19509;43.862;26.176;2022-11-15T14:13:39;2.00;;;2.00;;
33152;SDS011;19509;43.862;26.176;2022-11-15T14:16:21;2.50;;;2.50;;
33152;SDS011;19509;43.862;26.176;2022-11-15T14:18:57;2.30;;;2.30;;
33152;SDS011;19509;43.862;26.176;2022-11-15T14:21:22;2.40;;;2.40;;
33152;SDS011;19509;43.862;26.176;2022-11-15T14:23:48;2.10;;;2.10;;
33152;SDS011;19509;43.862;26.176;2022-11-15T14:26:33;2.30;;;2.30;;
33152;SDS011;19509;43.862;26.176;2022-11-15T14:31:47;2.57;;;2.47;;
33152;SDS011;19509;43.862;26.176;2022-11-15T14:34:12;2.43;;;2.40;;
33152;SDS011;19509;43.862;26.176;2022-11-15T14:36:37;2.30;;;2.30;;
33152;SDS011;19509;43.862;26.176;2022-11-15T14:39:03;2.90;;;2.80;;
33152;SDS011;19509;43.862;26.176;2022-11-15T14:41:33;2.50;;;2.50;;
33152;SDS011;19509;43.862;26.176;2022-11-15T14:44:02;2.63;;;2.63;;
33152;SDS011;19509;43.862;26.176;2022-11-15T14:46:28;2.70;;;2.70;;
33152;SDS011;19509;43.862;26.176;2022-11-15T14:48:54;2.70;;;2.70;;
33152;SDS011;19509;43.862;26.176;2022-11-15T14:51:19;2.43;;;2.43;;
33152;SDS011;19509;43.862;26.176;2022-11-15T14:53:45;2.40;;;2.40;;
33152;SDS011;19509;43.862;26.176;2022-11-15T14:56:11;2.60;;;2.60;;
33152;SDS011;19509;43.862;26.176;2022-11-15T14:58:37;3.00;;;2.90;;
33152;SDS011;19509;43.862;26.176;2022-11-15T15:01:09;2.43;;;2.33;;
33152;SDS011;19509;43.862;26.176;2022-11-15T15:03:38;2.50;;;2.50;;
33152;SDS011;19509;43.862;26.176;2022-11-15T15:06:03;2.53;;;2.53;;
33152;SDS011;19509;43.862;26.176;2022-11-15T15:08:29;2.80;;;2.80;;
33152;SDS011;19509;43.862;26.176;2022-11-15T15:10:54;2.57;;;2.57;;
33152;SDS011;19509;43.862;26.176;2022-11-15T15:13:21;2.60;;;2.60;;
33152;SDS011;19509;43.862;26.176;2022-11-15T15:15:48;2.50;;;2.50;;
33152;SDS011;19509;43.862;26.176;2022-11-15T15:18:14;2.60;;;2.60;;
33152;SDS011;19509;43.862;26.176;2022-11-15T15:20:41;2.50;;;2.50;;
33152;SDS011;19509;43.862;26.176;2022-11-15T15:23:14;2.50;;;2.50;;
33152;SDS011;19509;43.862;26.176;2022-11-15T15:25:44;2.60;;;2.60;;
33152;SDS011;19509;43.862;26.176;2022-11-15T15:28:11;2.80;;;2.70;;
33152;SDS011;19509;43.862;26.176;2022-11-15T15:30:37;2.73;;;2.73;;
33152;SDS011;19509;43.862;26.176;2022-11-15T15:33:03;2.50;;;2.50;;
33152;SDS011;19509;43.862;26.176;2022-11-15T15:35:33;2.60;;;2.60;;
33152;SDS011;19509;43.862;26.176;2022-11-15T15:37:59;2.70;;;2.60;;
33152;SDS011;19509;43.862;26.176;2022-11-15T15:40:26;2.40;;;2.40;;
33152;SDS011;19509;43.862;26.176;2022-11-15T15:42:53;2.93;;;2.83;;
33152;SDS011;19509;43.862;26.176;2022-11-15T15:45:18;2.40;;;2.40;;
33152;SDS011;19509;43.862;26.176;2022-11-15T15:47:44;2.37;;;2.37;;
33152;SDS011;19509;43.862;26.176;2022-11-15T15:50:23;2.50;;;2.50;;
33152;SDS011;19509;43.862;26.176;2022-11-15T15:52:57;2.47;;;2.47;;
33152;SDS011;19509;43.862;26.176;2022-11-15T15:55:24;2.53;;;2.53;;
33152;SDS011;19509;43.862;26.176;2022-11-15T15:57:51;2.67;;;2.67;;
33152;SDS011;19509;43.862;26.176;2022-11-15T16:00:17;2.67;;;2.67;;
33152;SDS011;19509;43.862;26.176;2022-11-15T16:02:43;2.60;;;2.50;;
33152;SDS011;19509;43.862;26.176;2022-11-15T16:05:09;2.40;;;2.40;;
33152;SDS011;19509;43.862;26.176;2022-11-15T16:07:35;2.80;;;2.80;;
33152;SDS011;19509;43.862;26.176;2022-11-15T16:10:01;2.30;;;2.30;;
33152;SDS011;19509;43.862;26.176;2022-11-15T16:12:31;2.60;;;2.60;;
33152;SDS011;19509;43.862;26.176;2022-11-15T16:14:59;2.80;;;2.70;;
33152;SDS011;19509;43.862;26.176;2022-11-15T16:17:27;3.03;;;2.93;;
33152;SDS011;19509;43.862;26.176;2022-11-15T16:19:55;3.10;;;3.00;;
33152;SDS011;19509;43.862;26.176;2022-11-15T16:22:21;3.00;;;2.90;;
33152;SDS011;19509;43.862;26.176;2022-11-15T16:24:46;2.63;;;2.63;;
33152;SDS011;19509;43.862;26.176;2022-11-15T16:27:21;2.77;;;2.77;;
33152;SDS011;19509;43.862;26.176;2022-11-15T16:29:47;2.60;;;2.60;;
33152;SDS011;19509;43.862;26.176;2022-11-15T16:32:13;2.93;;;2.83;;
33152;SDS011;19509;43.862;26.176;2022-11-15T16:34:39;2.70;;;2.70;;
33152;SDS011;19509;43.862;26.176;2022-11-15T16:37:04;3.10;;;3.10;;
33152;SDS011;19509;43.862;26.176;2022-11-15T16:39:30;3.07;;;2.97;;
33152;SDS011;19509;43.862;26.176;2022-11-15T16:41:59;3.40;;;3.30;;
33152;SDS011;19509;43.862;26.176;2022-11-15T16:44:25;3.07;;;2.87;;
33152;SDS011;19509;43.862;26.176;2022-11-15T16:46:51;2.67;;;2.57;;
33152;SDS011;19509;43.862;26.176;2022-11-15T16:49:17;2.50;;;2.50;;
33152;SDS011;19509;43.862;26.176;2022-11-15T16:51:47;2.57;;;2.57;;
33152;SDS011;19509;43.862;26.176;2022-11-15T16:54:14;3.10;;;3.00;;
33152;SDS011;19509;43.862;26.176;2022-11-15T16:56:40;2.90;;;2.90;;
33152;SDS011;19509;43.862;26.176;2022-11-15T16:59:06;2.70;;;2.70;;
33152;SDS011;19509;43.862;26.176;2022-11-15T17:01:33;3.10;;;3.00;;
33152;SDS011;19509;43.862;26.176;2022-11-15T17:04:00;4.23;;;4.13;;